sensor_id;sensor_type;location;lat;lon;timestamp;P1;durP1;ratioP1;P2;durP2;ratioP2
41875;SDS011;27555;50.808;4.402;2022-12-07T00:01:32;19.63;;;10.82;;
41875;SDS011;27555;50.808;4.402;2022-12-07T00:03:51;19.55;;;11.68;;
41875;SDS011;27555;50.808;4.402;2022-12-07T00:06:18;22.83;;;11.18;;
41875;SDS011;27555;50.808;4.402;2022-12-07T00:08:45;21.73;;;11.68;;
41875;SDS011;27555;50.808;4.402;2022-12-07T00:11:12;19.90;;;11.23;;
41875;SDS011;27555;50.808;4.402;2022-12-07T00:13:39;23.98;;;11.85;;
41875;SDS011;27555;50.808;4.402;2022-12-07T00:16:09;23.35;;;12.48;;
41875;SDS011;27555;50.808;4.402;2022-12-07T00:23:29;20.58;;;12.48;;
41875;SDS011;27555;50.808;4.402;2022-12-07T00:25:55;21.23;;;12.68;;
41875;SDS011;27555;50.808;4.402;2022-12-07T00:28:20;22.05;;;12.90;;
41875;SDS011;27555;50.808;4.402;2022-12-07T00:30:46;25.25;;;12.77;;
41875;SDS011;27555;50.808;4.402;2022-12-07T00:33:11;26.30;;;13.32;;
41875;SDS011;27555;50.808;4.402;2022-12-07T00:35:37;25.23;;;13.40;;
41875;SDS011;27555;50.808;4.402;2022-12-07T00:38:03;25.65;;;14.18;;
41875;SDS011;27555;50.808;4.402;2022-12-07T00:40:28;28.02;;;13.50;;
41875;SDS011;27555;50.808;4.402;2022-12-07T00:42:54;27.00;;;14.20;;
41875;SDS011;27555;50.808;4.402;2022-12-07T00:45:19;24.90;;;13.70;;
41875;SDS011;27555;50.808;4.402;2022-12-07T00:47:45;27.38;;;14.20;;
41875;SDS011;27555;50.808;4.402;2022-12-07T00:50:10;23.30;;;13.27;;
41875;SDS011;27555;50.808;4.402;2022-12-07T00:52:36;29.40;;;13.55;;
41875;SDS011;27555;50.808;4.402;2022-12-07T00:55:01;21.52;;;12.95;;
41875;SDS011;27555;50.808;4.402;2022-12-07T00:57:27;28.25;;;15.52;;
41875;SDS011;27555;50.808;4.402;2022-12-07T00:59:54;27.50;;;13.07;;
41875;SDS011;27555;50.808;4.402;2022-12-07T01:02:22;25.02;;;13.45;;
41875;SDS011;27555;50.808;4.402;2022-12-07T01:04:48;26.30;;;14.63;;
41875;SDS011;27555;50.808;4.402;2022-12-07T01:07:14;25.75;;;13.82;;
41875;SDS011;27555;50.808;4.402;2022-12-07T01:09:39;26.42;;;13.43;;
41875;SDS011;27555;50.808;4.402;2022-12-07T01:12:05;24.15;;;13.05;;
41875;SDS011;27555;50.808;4.402;2022-12-07T01:14:31;23.23;;;12.50;;
41875;SDS011;27555;50.808;4.402;2022-12-07T01:16:56;21.83;;;12.68;;
41875;SDS011;27555;50.808;4.402;2022-12-07T01:19:22;25.92;;;13.25;;
41875;SDS011;27555;50.808;4.402;2022-12-07T01:21:48;21.25;;;12.18;;
41875;SDS011;27555;50.808;4.402;2022-12-07T01:24:13;21.75;;;12.20;;
41875;SDS011;27555;50.808;4.402;2022-12-07T01:26:39;20.83;;;11.48;;
41875;SDS011;27555;50.808;4.402;2022-12-07T01:29:04;28.42;;;14.00;;
41875;SDS011;27555;50.808;4.402;2022-12-07T01:31:30;30.23;;;13.07;;
41875;SDS011;27555;50.808;4.402;2022-12-07T01:33:56;23.33;;;12.50;;
41875;SDS011;27555;50.808;4.402;2022-12-07T01:36:41;21.30;;;12.95;;
41875;SDS011;27555;50.808;4.402;2022-12-07T01:39:07;23.00;;;12.77;;
41875;SDS011;27555;50.808;4.402;2022-12-07T01:41:35;24.27;;;12.10;;
41875;SDS011;27555;50.808;4.402;2022-12-07T01:52:13;21.70;;;12.40;;
41875;SDS011;27555;50.808;4.402;2022-12-07T01:54:46;26.42;;;12.45;;
41875;SDS011;27555;50.808;4.402;2022-12-07T01:57:14;24.35;;;13.63;;
41875;SDS011;27555;50.808;4.402;2022-12-07T01:59:41;24.98;;;13.77;;
41875;SDS011;27555;50.808;4.402;2022-12-07T02:02:15;33.22;;;13.63;;
41875;SDS011;27555;50.808;4.402;2022-12-07T02:04:47;25.08;;;13.43;;
41875;SDS011;27555;50.808;4.402;2022-12-07T02:07:17;29.15;;;13.77;;
41875;SDS011;27555;50.808;4.402;2022-12-07T02:13:00;25.70;;;13.48;;
41875;SDS011;27555;50.808;4.402;2022-12-07T02:21:24;25.98;;;12.70;;
41875;SDS011;27555;50.808;4.402;2022-12-07T02:32:20;20.80;;;12.27;;
41875;SDS011;27555;50.808;4.402;2022-12-07T02:38:12;21.52;;;11.30;;
41875;SDS011;27555;50.808;4.402;2022-12-07T02:43:23;17.92;;;10.13;;
41875;SDS011;27555;50.808;4.402;2022-12-07T02:45:55;20.52;;;10.25;;
41875;SDS011;27555;50.808;4.402;2022-12-07T02:48:26;19.75;;;10.50;;
41875;SDS011;27555;50.808;4.402;2022-12-07T02:50:55;16.35;;;9.43;;
41875;SDS011;27555;50.808;4.402;2022-12-07T02:53:37;21.08;;;9.48;;
41875;SDS011;27555;50.808;4.402;2022-12-07T03:01:46;15.25;;;9.85;;
41875;SDS011;27555;50.808;4.402;2022-12-07T03:07:09;18.73;;;9.45;;
41875;SDS011;27555;50.808;4.402;2022-12-07T03:09:49;21.58;;;9.43;;
41875;SDS011;27555;50.808;4.402;2022-12-07T03:15:19;20.08;;;9.95;;
41875;SDS011;27555;50.808;4.402;2022-12-07T03:17:51;17.75;;;10.02;;
41875;SDS011;27555;50.808;4.402;2022-12-07T03:20:20;19.20;;;10.07;;
41875;SDS011;27555;50.808;4.402;2022-12-07T03:22:48;19.17;;;10.77;;
41875;SDS011;27555;50.808;4.402;2022-12-07T03:25:16;16.55;;;10.25;;
41875;SDS011;27555;50.808;4.402;2022-12-07T03:27:44;18.45;;;11.40;;
41875;SDS011;27555;50.808;4.402;2022-12-07T03:30:22;28.60;;;11.90;;
41875;SDS011;27555;50.808;4.402;2022-12-07T03:35:19;19.77;;;10.82;;
41875;SDS011;27555;50.808;4.402;2022-12-07T03:38:14;16.70;;;10.68;;
41875;SDS011;27555;50.808;4.402;2022-12-07T03:40:52;23.02;;;10.85;;
41875;SDS011;27555;50.808;4.402;2022-12-07T03:43:49;18.27;;;10.35;;
41875;SDS011;27555;50.808;4.402;2022-12-07T03:51:41;18.77;;;10.93;;
41875;SDS011;27555;50.808;4.402;2022-12-07T03:56:58;19.55;;;10.88;;
41875;SDS011;27555;50.808;4.402;2022-12-07T03:59:26;22.20;;;10.77;;
41875;SDS011;27555;50.808;4.402;2022-12-07T04:01:53;19.40;;;10.68;;
41875;SDS011;27555;50.808;4.402;2022-12-07T04:04:22;23.85;;;10.38;;
41875;SDS011;27555;50.808;4.402;2022-12-07T04:06:49;17.27;;;9.52;;
41875;SDS011;27555;50.808;4.402;2022-12-07T04:09:15;17.05;;;10.00;;
41875;SDS011;27555;50.808;4.402;2022-12-07T04:11:42;20.15;;;10.90;;
41875;SDS011;27555;50.808;4.402;2022-12-07T04:14:10;23.15;;;11.40;;
41875;SDS011;27555;50.808;4.402;2022-12-07T04:16:51;19.55;;;11.00;;
41875;SDS011;27555;50.808;4.402;2022-12-07T04:19:19;22.55;;;11.60;;
41875;SDS011;27555;50.808;4.402;2022-12-07T04:21:46;19.27;;;11.52;;
41875;SDS011;27555;50.808;4.402;2022-12-07T04:24:13;24.48;;;11.30;;
41875;SDS011;27555;50.808;4.402;2022-12-07T04:26:42;18.98;;;11.10;;
41875;SDS011;27555;50.808;4.402;2022-12-07T04:29:14;18.77;;;11.30;;
41875;SDS011;27555;50.808;4.402;2022-12-07T04:31:40;20.55;;;10.95;;
41875;SDS011;27555;50.808;4.402;2022-12-07T04:34:06;22.50;;;11.55;;
41875;SDS011;27555;50.808;4.402;2022-12-07T04:36:32;21.52;;;11.40;;
41875;SDS011;27555;50.808;4.402;2022-12-07T04:38:59;22.10;;;12.05;;
41875;SDS011;27555;50.808;4.402;2022-12-07T04:41:25;18.98;;;11.05;;
41875;SDS011;27555;50.808;4.402;2022-12-07T04:43:55;22.15;;;11.48;;
41875;SDS011;27555;50.808;4.402;2022-12-07T04:46:22;25.35;;;11.50;;
41875;SDS011;27555;50.808;4.402;2022-12-07T04:48:50;23.17;;;12.07;;
41875;SDS011;27555;50.808;4.402;2022-12-07T04:51:19;25.25;;;12.45;;
41875;SDS011;27555;50.808;4.402;2022-12-07T04:53:47;24.90;;;12.38;;
41875;SDS011;27555;50.808;4.402;2022-12-07T04:56:13;22.48;;;13.02;;
41875;SDS011;27555;50.808;4.402;2022-12-07T04:58:41;25.27;;;12.50;;
41875;SDS011;27555;50.808;4.402;2022-12-07T05:01:08;22.83;;;11.82;;
41875;SDS011;27555;50.808;4.402;2022-12-07T05:03:33;24.83;;;12.32;;
41875;SDS011;27555;50.808;4.402;2022-12-07T05:06:00;18.52;;;11.55;;
41875;SDS011;27555;50.808;4.402;2022-12-07T05:08:27;25.00;;;13.23;;
41875;SDS011;27555;50.808;4.402;2022-12-07T05:10:53;18.27;;;11.90;;
41875;SDS011;27555;50.808;4.402;2022-12-07T05:13:20;25.60;;;11.45;;
41875;SDS011;27555;50.808;4.402;2022-12-07T05:15:47;24.88;;;11.48;;
41875;SDS011;27555;50.808;4.402;2022-12-07T05:18:13;21.80;;;11.77;;
41875;SDS011;27555;50.808;4.402;2022-12-07T05:20:41;22.77;;;11.27;;
41875;SDS011;27555;50.808;4.402;2022-12-07T05:23:08;19.88;;;10.30;;
41875;SDS011;27555;50.808;4.402;2022-12-07T05:25:33;22.83;;;12.13;;
41875;SDS011;27555;50.808;4.402;2022-12-07T05:28:00;20.95;;;11.27;;
41875;SDS011;27555;50.808;4.402;2022-12-07T05:30:27;22.52;;;11.07;;
41875;SDS011;27555;50.808;4.402;2022-12-07T05:32:53;20.52;;;11.48;;
41875;SDS011;27555;50.808;4.402;2022-12-07T05:35:19;21.50;;;10.35;;
41875;SDS011;27555;50.808;4.402;2022-12-07T05:37:47;21.15;;;10.68;;
41875;SDS011;27555;50.808;4.402;2022-12-07T05:40:14;19.45;;;10.70;;
41875;SDS011;27555;50.808;4.402;2022-12-07T05:42:40;17.33;;;9.85;;
41875;SDS011;27555;50.808;4.402;2022-12-07T05:45:09;21.25;;;10.30;;
41875;SDS011;27555;50.808;4.402;2022-12-07T05:47:35;18.87;;;10.57;;
41875;SDS011;27555;50.808;4.402;2022-12-07T05:50:04;25.33;;;11.50;;
41875;SDS011;27555;50.808;4.402;2022-12-07T05:52:31;23.23;;;10.85;;
41875;SDS011;27555;50.808;4.402;2022-12-07T05:54:56;24.50;;;10.98;;
41875;SDS011;27555;50.808;4.402;2022-12-07T05:57:22;23.73;;;12.40;;
41875;SDS011;27555;50.808;4.402;2022-12-07T05:59:48;21.70;;;9.85;;
41875;SDS011;27555;50.808;4.402;2022-12-07T06:02:14;22.38;;;12.80;;
41875;SDS011;27555;50.808;4.402;2022-12-07T06:04:42;21.95;;;10.60;;
41875;SDS011;27555;50.808;4.402;2022-12-07T06:07:10;19.90;;;10.82;;
41875;SDS011;27555;50.808;4.402;2022-12-07T06:09:37;23.05;;;10.55;;
41875;SDS011;27555;50.808;4.402;2022-12-07T06:12:04;23.08;;;10.95;;
41875;SDS011;27555;50.808;4.402;2022-12-07T06:14:50;16.23;;;9.30;;
41875;SDS011;27555;50.808;4.402;2022-12-07T06:17:15;19.13;;;9.55;;
41875;SDS011;27555;50.808;4.402;2022-12-07T06:19:41;19.50;;;10.13;;
41875;SDS011;27555;50.808;4.402;2022-12-07T06:22:08;17.23;;;9.65;;
41875;SDS011;27555;50.808;4.402;2022-12-07T06:24:35;17.92;;;9.07;;
41875;SDS011;27555;50.808;4.402;2022-12-07T06:27:01;25.40;;;10.13;;
41875;SDS011;27555;50.808;4.402;2022-12-07T06:29:27;23.70;;;9.73;;
41875;SDS011;27555;50.808;4.402;2022-12-07T06:31:52;15.38;;;9.05;;
41875;SDS011;27555;50.808;4.402;2022-12-07T06:34:19;23.42;;;9.85;;
41875;SDS011;27555;50.808;4.402;2022-12-07T06:36:47;17.75;;;8.38;;
41875;SDS011;27555;50.808;4.402;2022-12-07T06:39:17;20.73;;;10.93;;
41875;SDS011;27555;50.808;4.402;2022-12-07T06:41:43;21.38;;;9.32;;
41875;SDS011;27555;50.808;4.402;2022-12-07T06:44:09;19.38;;;9.45;;
41875;SDS011;27555;50.808;4.402;2022-12-07T06:46:35;21.98;;;11.35;;
41875;SDS011;27555;50.808;4.402;2022-12-07T06:49:01;18.45;;;11.35;;
41875;SDS011;27555;50.808;4.402;2022-12-07T06:51:28;18.90;;;10.13;;
41875;SDS011;27555;50.808;4.402;2022-12-07T06:53:53;19.13;;;9.40;;
41875;SDS011;27555;50.808;4.402;2022-12-07T06:56:20;18.15;;;10.20;;
41875;SDS011;27555;50.808;4.402;2022-12-07T06:58:45;20.33;;;9.90;;
41875;SDS011;27555;50.808;4.402;2022-12-07T07:01:12;18.75;;;9.25;;
41875;SDS011;27555;50.808;4.402;2022-12-07T07:03:39;17.00;;;9.77;;
41875;SDS011;27555;50.808;4.402;2022-12-07T07:06:05;17.92;;;9.60;;
41875;SDS011;27555;50.808;4.402;2022-12-07T07:08:31;17.02;;;8.80;;
41875;SDS011;27555;50.808;4.402;2022-12-07T07:10:56;19.58;;;10.45;;
41875;SDS011;27555;50.808;4.402;2022-12-07T07:13:22;15.55;;;8.80;;
41875;SDS011;27555;50.808;4.402;2022-12-07T07:15:48;19.30;;;9.20;;
41875;SDS011;27555;50.808;4.402;2022-12-07T07:18:13;15.35;;;8.60;;
41875;SDS011;27555;50.808;4.402;2022-12-07T07:20:40;15.55;;;8.95;;
41875;SDS011;27555;50.808;4.402;2022-12-07T07:23:06;16.35;;;8.70;;
41875;SDS011;27555;50.808;4.402;2022-12-07T07:25:32;22.15;;;8.75;;
41875;SDS011;27555;50.808;4.402;2022-12-07T07:27:58;15.48;;;9.10;;
41875;SDS011;27555;50.808;4.402;2022-12-07T07:30:25;18.45;;;8.43;;
41875;SDS011;27555;50.808;4.402;2022-12-07T07:32:51;23.52;;;9.32;;
41875;SDS011;27555;50.808;4.402;2022-12-07T07:35:20;17.10;;;9.30;;
41875;SDS011;27555;50.808;4.402;2022-12-07T07:37:46;16.42;;;9.10;;
41875;SDS011;27555;50.808;4.402;2022-12-07T07:40:11;16.60;;;9.10;;
41875;SDS011;27555;50.808;4.402;2022-12-07T07:42:38;19.98;;;8.90;;
41875;SDS011;27555;50.808;4.402;2022-12-07T07:45:04;14.60;;;8.43;;
41875;SDS011;27555;50.808;4.402;2022-12-07T07:47:30;21.27;;;9.38;;
41875;SDS011;27555;50.808;4.402;2022-12-07T07:49:55;22.65;;;8.95;;
41875;SDS011;27555;50.808;4.402;2022-12-07T07:52:21;18.13;;;8.95;;
41875;SDS011;27555;50.808;4.402;2022-12-07T07:54:46;21.52;;;9.77;;
41875;SDS011;27555;50.808;4.402;2022-12-07T07:57:13;17.65;;;8.52;;
41875;SDS011;27555;50.808;4.402;2022-12-07T07:59:40;15.90;;;7.55;;
41875;SDS011;27555;50.808;4.402;2022-12-07T08:02:07;24.23;;;8.10;;
41875;SDS011;27555;50.808;4.402;2022-12-07T08:04:38;19.35;;;8.48;;
41875;SDS011;27555;50.808;4.402;2022-12-07T08:07:03;15.50;;;8.13;;
41875;SDS011;27555;50.808;4.402;2022-12-07T08:09:29;16.90;;;9.38;;
41875;SDS011;27555;50.808;4.402;2022-12-07T08:11:54;16.73;;;8.77;;
41875;SDS011;27555;50.808;4.402;2022-12-07T08:14:20;25.13;;;9.35;;
41875;SDS011;27555;50.808;4.402;2022-12-07T08:16:46;20.83;;;9.90;;
41875;SDS011;27555;50.808;4.402;2022-12-07T08:19:12;18.45;;;9.13;;
41875;SDS011;27555;50.808;4.402;2022-12-07T08:21:38;20.42;;;9.23;;
41875;SDS011;27555;50.808;4.402;2022-12-07T08:24:04;19.95;;;10.57;;
41875;SDS011;27555;50.808;4.402;2022-12-07T08:26:31;19.15;;;10.57;;
41875;SDS011;27555;50.808;4.402;2022-12-07T08:28:56;22.13;;;10.43;;
41875;SDS011;27555;50.808;4.402;2022-12-07T08:31:22;20.40;;;11.13;;
41875;SDS011;27555;50.808;4.402;2022-12-07T08:33:47;20.52;;;10.30;;
41875;SDS011;27555;50.808;4.402;2022-12-07T08:36:14;17.58;;;9.55;;
41875;SDS011;27555;50.808;4.402;2022-12-07T08:38:40;21.98;;;10.32;;
41875;SDS011;27555;50.808;4.402;2022-12-07T08:41:07;17.60;;;9.52;;
41875;SDS011;27555;50.808;4.402;2022-12-07T08:43:33;20.42;;;8.82;;
41875;SDS011;27555;50.808;4.402;2022-12-07T08:48:34;19.55;;;9.57;;
41875;SDS011;27555;50.808;4.402;2022-12-07T08:51:04;22.55;;;8.82;;
41875;SDS011;27555;50.808;4.402;2022-12-07T08:53:29;17.67;;;9.20;;
41875;SDS011;27555;50.808;4.402;2022-12-07T08:55:56;22.27;;;9.15;;
41875;SDS011;27555;50.808;4.402;2022-12-07T08:58:23;22.35;;;8.65;;
41875;SDS011;27555;50.808;4.402;2022-12-07T09:00:48;18.75;;;8.30;;
41875;SDS011;27555;50.808;4.402;2022-12-07T09:03:14;17.23;;;7.90;;
41875;SDS011;27555;50.808;4.402;2022-12-07T09:05:39;16.60;;;7.45;;
41875;SDS011;27555;50.808;4.402;2022-12-07T09:08:05;25.73;;;7.97;;
41875;SDS011;27555;50.808;4.402;2022-12-07T09:10:32;20.95;;;7.95;;
41875;SDS011;27555;50.808;4.402;2022-12-07T09:12:58;17.52;;;7.10;;
41875;SDS011;27555;50.808;4.402;2022-12-07T09:15:27;13.25;;;6.88;;
41875;SDS011;27555;50.808;4.402;2022-12-07T09:17:53;15.45;;;6.68;;
41875;SDS011;27555;50.808;4.402;2022-12-07T09:20:19;18.10;;;7.13;;
41875;SDS011;27555;50.808;4.402;2022-12-07T09:22:45;14.80;;;7.10;;
41875;SDS011;27555;50.808;4.402;2022-12-07T09:25:11;20.35;;;7.82;;
41875;SDS011;27555;50.808;4.402;2022-12-07T09:27:37;21.35;;;9.20;;
41875;SDS011;27555;50.808;4.402;2022-12-07T09:30:03;15.55;;;6.75;;
41875;SDS011;27555;50.808;4.402;2022-12-07T09:32:29;12.95;;;6.40;;
41875;SDS011;27555;50.808;4.402;2022-12-07T09:34:55;12.77;;;6.47;;
41875;SDS011;27555;50.808;4.402;2022-12-07T09:37:20;14.95;;;6.28;;
41875;SDS011;27555;50.808;4.402;2022-12-07T09:39:47;11.88;;;7.05;;
41875;SDS011;27555;50.808;4.402;2022-12-07T09:42:19;11.52;;;6.43;;
41875;SDS011;27555;50.808;4.402;2022-12-07T09:44:58;15.25;;;6.72;;
41875;SDS011;27555;50.808;4.402;2022-12-07T09:47:24;15.55;;;6.00;;
41875;SDS011;27555;50.808;4.402;2022-12-07T09:49:49;13.85;;;5.03;;
41875;SDS011;27555;50.808;4.402;2022-12-07T09:52:17;15.93;;;7.05;;
41875;SDS011;27555;50.808;4.402;2022-12-07T09:54:51;15.57;;;5.72;;
41875;SDS011;27555;50.808;4.402;2022-12-07T09:57:17;8.82;;;5.25;;
41875;SDS011;27555;50.808;4.402;2022-12-07T09:59:52;12.20;;;4.85;;
41875;SDS011;27555;50.808;4.402;2022-12-07T10:02:41;14.95;;;5.13;;
41875;SDS011;27555;50.808;4.402;2022-12-07T10:05:07;11.10;;;5.22;;
41875;SDS011;27555;50.808;4.402;2022-12-07T10:07:40;14.20;;;5.28;;
41875;SDS011;27555;50.808;4.402;2022-12-07T10:10:09;12.82;;;4.85;;
41875;SDS011;27555;50.808;4.402;2022-12-07T10:12:53;12.02;;;4.88;;
41875;SDS011;27555;50.808;4.402;2022-12-07T10:15:21;18.48;;;6.50;;
41875;SDS011;27555;50.808;4.402;2022-12-07T10:17:47;13.27;;;6.22;;
41875;SDS011;27555;50.808;4.402;2022-12-07T10:20:17;12.77;;;6.65;;
41875;SDS011;27555;50.808;4.402;2022-12-07T10:22:56;15.10;;;6.45;;
41875;SDS011;27555;50.808;4.402;2022-12-07T10:25:25;16.80;;;6.63;;
41875;SDS011;27555;50.808;4.402;2022-12-07T10:28:09;12.80;;;5.47;;
41875;SDS011;27555;50.808;4.402;2022-12-07T10:30:48;12.95;;;6.30;;
41875;SDS011;27555;50.808;4.402;2022-12-07T10:33:36;13.48;;;5.75;;
41875;SDS011;27555;50.808;4.402;2022-12-07T10:36:48;13.95;;;5.47;;
41875;SDS011;27555;50.808;4.402;2022-12-07T10:39:21;16.90;;;5.43;;
41875;SDS011;27555;50.808;4.402;2022-12-07T10:44:23;9.63;;;4.90;;
41875;SDS011;27555;50.808;4.402;2022-12-07T10:49:51;13.27;;;5.10;;
41875;SDS011;27555;50.808;4.402;2022-12-07T10:52:54;13.68;;;5.68;;
41875;SDS011;27555;50.808;4.402;2022-12-07T11:01:21;8.05;;;4.85;;
41875;SDS011;27555;50.808;4.402;2022-12-07T11:09:38;9.88;;;4.40;;
41875;SDS011;27555;50.808;4.402;2022-12-07T11:12:11;15.02;;;4.60;;
41875;SDS011;27555;50.808;4.402;2022-12-07T11:18:09;7.47;;;4.93;;
41875;SDS011;27555;50.808;4.402;2022-12-07T11:20:44;12.85;;;4.75;;
41875;SDS011;27555;50.808;4.402;2022-12-07T11:26:05;12.77;;;5.00;;
41875;SDS011;27555;50.808;4.402;2022-12-07T11:34:31;8.38;;;3.67;;
41875;SDS011;27555;50.808;4.402;2022-12-07T11:37:13;6.72;;;3.60;;
41875;SDS011;27555;50.808;4.402;2022-12-07T11:39:55;8.55;;;3.83;;
41875;SDS011;27555;50.808;4.402;2022-12-07T11:42:27;9.93;;;4.35;;
41875;SDS011;27555;50.808;4.402;2022-12-07T11:45:00;12.88;;;4.00;;
41875;SDS011;27555;50.808;4.402;2022-12-07T11:50:30;9.00;;;4.45;;
41875;SDS011;27555;50.808;4.402;2022-12-07T11:53:05;15.85;;;3.58;;
41875;SDS011;27555;50.808;4.402;2022-12-07T11:55:40;7.85;;;3.22;;
41875;SDS011;27555;50.808;4.402;2022-12-07T12:00:55;10.93;;;3.67;;
41875;SDS011;27555;50.808;4.402;2022-12-07T12:03:52;10.57;;;3.45;;
41875;SDS011;27555;50.808;4.402;2022-12-07T12:06:32;7.63;;;3.08;;
41875;SDS011;27555;50.808;4.402;2022-12-07T12:09:23;9.48;;;3.38;;
41875;SDS011;27555;50.808;4.402;2022-12-07T12:25:44;7.03;;;2.38;;
41875;SDS011;27555;50.808;4.402;2022-12-07T12:28:39;13.65;;;3.53;;
41875;SDS011;27555;50.808;4.402;2022-12-07T12:33:51;7.35;;;1.58;;
41875;SDS011;27555;50.808;4.402;2022-12-07T12:36:20;6.30;;;1.80;;
41875;SDS011;27555;50.808;4.402;2022-12-07T12:46:58;3.72;;;1.52;;
41875;SDS011;27555;50.808;4.402;2022-12-07T12:51:50;8.93;;;1.23;;
41875;SDS011;27555;50.808;4.402;2022-12-07T13:02:10;3.63;;;1.02;;
41875;SDS011;27555;50.808;4.402;2022-12-07T13:10:30;6.88;;;1.38;;
41875;SDS011;27555;50.808;4.402;2022-12-07T13:15:48;9.48;;;1.70;;
41875;SDS011;27555;50.808;4.402;2022-12-07T13:18:35;6.35;;;1.55;;
41875;SDS011;27555;50.808;4.402;2022-12-07T13:21:39;7.10;;;1.88;;
41875;SDS011;27555;50.808;4.402;2022-12-07T13:23:55;10.65;;;1.80;;
41875;SDS011;27555;50.808;4.402;2022-12-07T13:31:44;9.90;;;1.85;;
41875;SDS011;27555;50.808;4.402;2022-12-07T13:34:32;6.40;;;1.88;;
41875;SDS011;27555;50.808;4.402;2022-12-07T13:37:01;6.70;;;2.03;;
41875;SDS011;27555;50.808;4.402;2022-12-07T13:39:52;4.82;;;1.90;;
41875;SDS011;27555;50.808;4.402;2022-12-07T13:42:26;7.68;;;2.05;;
41875;SDS011;27555;50.808;4.402;2022-12-07T13:44:53;6.80;;;1.77;;
41875;SDS011;27555;50.808;4.402;2022-12-07T13:47:21;9.25;;;2.30;;
41875;SDS011;27555;50.808;4.402;2022-12-07T13:49:53;7.30;;;2.38;;
41875;SDS011;27555;50.808;4.402;2022-12-07T13:57:24;7.78;;;1.95;;
41875;SDS011;27555;50.808;4.402;2022-12-07T13:59:51;6.53;;;1.73;;
41875;SDS011;27555;50.808;4.402;2022-12-07T14:02:25;21.80;;;2.33;;
41875;SDS011;27555;50.808;4.402;2022-12-07T14:05:09;5.80;;;1.80;;
41875;SDS011;27555;50.808;4.402;2022-12-07T14:07:35;9.48;;;2.97;;
41875;SDS011;27555;50.808;4.402;2022-12-07T14:10:04;5.93;;;2.33;;
41875;SDS011;27555;50.808;4.402;2022-12-07T14:12:31;8.82;;;2.83;;
41875;SDS011;27555;50.808;4.402;2022-12-07T14:15:00;7.13;;;2.80;;
41875;SDS011;27555;50.808;4.402;2022-12-07T14:17:27;9.52;;;2.13;;
41875;SDS011;27555;50.808;4.402;2022-12-07T14:19:54;6.55;;;2.05;;
41875;SDS011;27555;50.808;4.402;2022-12-07T14:28:03;7.47;;;1.58;;
41875;SDS011;27555;50.808;4.402;2022-12-07T14:30:30;5.47;;;1.77;;
41875;SDS011;27555;50.808;4.402;2022-12-07T14:32:58;4.80;;;1.40;;
41875;SDS011;27555;50.808;4.402;2022-12-07T14:35:27;6.38;;;2.97;;
41875;SDS011;27555;50.808;4.402;2022-12-07T14:37:53;6.40;;;2.45;;
41875;SDS011;27555;50.808;4.402;2022-12-07T14:40:29;5.63;;;1.75;;
41875;SDS011;27555;50.808;4.402;2022-12-07T14:43:11;7.78;;;2.05;;
41875;SDS011;27555;50.808;4.402;2022-12-07T14:45:39;10.45;;;2.80;;
41875;SDS011;27555;50.808;4.402;2022-12-07T14:48:05;10.02;;;2.15;;
41875;SDS011;27555;50.808;4.402;2022-12-07T14:53:03;2.78;;;1.35;;
41875;SDS011;27555;50.808;4.402;2022-12-07T14:55:41;1.75;;;0.90;;
41875;SDS011;27555;50.808;4.402;2022-12-07T14:58:13;3.53;;;1.10;;
41875;SDS011;27555;50.808;4.402;2022-12-07T15:00:40;6.03;;;1.08;;
41875;SDS011;27555;50.808;4.402;2022-12-07T15:03:06;3.67;;;1.20;;
41875;SDS011;27555;50.808;4.402;2022-12-07T15:05:32;5.55;;;1.58;;
41875;SDS011;27555;50.808;4.402;2022-12-07T15:07:58;3.75;;;1.20;;
41875;SDS011;27555;50.808;4.402;2022-12-07T15:10:26;6.50;;;2.40;;
41875;SDS011;27555;50.808;4.402;2022-12-07T15:12:55;8.07;;;2.30;;
41875;SDS011;27555;50.808;4.402;2022-12-07T15:15:46;6.13;;;1.70;;
41875;SDS011;27555;50.808;4.402;2022-12-07T15:18:15;5.70;;;1.35;;
41875;SDS011;27555;50.808;4.402;2022-12-07T15:20:42;5.00;;;1.50;;
41875;SDS011;27555;50.808;4.402;2022-12-07T15:23:08;4.47;;;2.10;;
41875;SDS011;27555;50.808;4.402;2022-12-07T15:25:34;7.88;;;3.28;;
41875;SDS011;27555;50.808;4.402;2022-12-07T15:28:00;25.40;;;6.30;;
41875;SDS011;27555;50.808;4.402;2022-12-07T15:30:26;12.18;;;3.45;;
41875;SDS011;27555;50.808;4.402;2022-12-07T15:32:51;9.98;;;3.30;;
41875;SDS011;27555;50.808;4.402;2022-12-07T15:35:17;16.52;;;7.28;;
41875;SDS011;27555;50.808;4.402;2022-12-07T15:37:43;11.10;;;3.13;;
41875;SDS011;27555;50.808;4.402;2022-12-07T15:40:12;10.35;;;2.85;;
41875;SDS011;27555;50.808;4.402;2022-12-07T15:42:42;7.38;;;3.55;;
41875;SDS011;27555;50.808;4.402;2022-12-07T15:45:07;10.02;;;3.33;;
41875;SDS011;27555;50.808;4.402;2022-12-07T15:47:38;6.55;;;2.47;;
41875;SDS011;27555;50.808;4.402;2022-12-07T15:50:07;6.93;;;2.70;;
41875;SDS011;27555;50.808;4.402;2022-12-07T15:52:35;10.43;;;4.25;;
41875;SDS011;27555;50.808;4.402;2022-12-07T15:55:00;5.20;;;2.60;;
41875;SDS011;27555;50.808;4.402;2022-12-07T15:57:33;10.10;;;4.50;;
41875;SDS011;27555;50.808;4.402;2022-12-07T16:00:02;10.05;;;3.35;;
41875;SDS011;27555;50.808;4.402;2022-12-07T16:02:28;4.90;;;2.20;;
41875;SDS011;27555;50.808;4.402;2022-12-07T16:04:54;6.75;;;3.17;;
41875;SDS011;27555;50.808;4.402;2022-12-07T16:07:20;7.05;;;2.63;;
41875;SDS011;27555;50.808;4.402;2022-12-07T16:09:46;6.93;;;2.65;;
41875;SDS011;27555;50.808;4.402;2022-12-07T16:12:12;7.72;;;3.22;;
41875;SDS011;27555;50.808;4.402;2022-12-07T16:14:38;9.02;;;3.22;;
41875;SDS011;27555;50.808;4.402;2022-12-07T16:17:04;7.85;;;3.03;;
41875;SDS011;27555;50.808;4.402;2022-12-07T16:19:31;8.80;;;3.22;;
41875;SDS011;27555;50.808;4.402;2022-12-07T16:21:57;7.20;;;3.47;;
41875;SDS011;27555;50.808;4.402;2022-12-07T16:24:23;18.60;;;6.82;;
41875;SDS011;27555;50.808;4.402;2022-12-07T16:26:49;13.07;;;4.90;;
41875;SDS011;27555;50.808;4.402;2022-12-07T16:29:15;8.52;;;4.55;;
41875;SDS011;27555;50.808;4.402;2022-12-07T16:31:42;15.65;;;6.60;;
41875;SDS011;27555;50.808;4.402;2022-12-07T16:34:08;13.75;;;7.13;;
41875;SDS011;27555;50.808;4.402;2022-12-07T16:36:34;25.10;;;10.63;;
41875;SDS011;27555;50.808;4.402;2022-12-07T16:39:00;10.70;;;5.22;;
41875;SDS011;27555;50.808;4.402;2022-12-07T16:41:26;10.18;;;4.72;;
41875;SDS011;27555;50.808;4.402;2022-12-07T16:43:51;9.38;;;4.03;;
41875;SDS011;27555;50.808;4.402;2022-12-07T16:46:17;6.38;;;3.83;;
41875;SDS011;27555;50.808;4.402;2022-12-07T16:48:43;7.68;;;4.32;;
41875;SDS011;27555;50.808;4.402;2022-12-07T16:51:09;7.20;;;3.92;;
41875;SDS011;27555;50.808;4.402;2022-12-07T16:53:38;8.75;;;4.57;;
41875;SDS011;27555;50.808;4.402;2022-12-07T16:56:09;9.05;;;4.57;;
41875;SDS011;27555;50.808;4.402;2022-12-07T16:58:36;12.95;;;5.20;;
41875;SDS011;27555;50.808;4.402;2022-12-07T17:01:09;16.15;;;4.32;;
41875;SDS011;27555;50.808;4.402;2022-12-07T17:03:38;9.02;;;5.32;;
41875;SDS011;27555;50.808;4.402;2022-12-07T17:06:10;10.35;;;6.35;;
41875;SDS011;27555;50.808;4.402;2022-12-07T17:08:56;11.82;;;6.07;;
41875;SDS011;27555;50.808;4.402;2022-12-07T17:11:23;10.45;;;6.55;;
41875;SDS011;27555;50.808;4.402;2022-12-07T17:13:50;9.50;;;5.13;;
41875;SDS011;27555;50.808;4.402;2022-12-07T17:16:34;11.38;;;5.13;;
41875;SDS011;27555;50.808;4.402;2022-12-07T17:19:03;8.05;;;4.93;;
41875;SDS011;27555;50.808;4.402;2022-12-07T17:21:30;9.68;;;4.60;;
41875;SDS011;27555;50.808;4.402;2022-12-07T17:23:58;9.27;;;4.85;;